Portada
METAR-TAF:

METAR-TAF

Aeroports :

Al-Riyad, Aràbia Saudita

latitud: 24-56N, longitud: 046-43E, altitud: 614 m

Observació

L'informe es va fer fa 1 hora i 3 minuts, a les 11:00 UTC
Vent 12 kt del Nord/Nord-Oest amb ràfegues de 22 kt
Temperatura 43°C
Humitat 9%
Pressió 1004 hPa
Visibilitat 10 km o més
sense núvols per sota de 1500 mi sense presència de cumulonimbus.

METAR: OERK 161100Z 34012G22KT CAVOK 43/04 Q1004 NOSIG

Hora: 15:03 (12:03 UTC)

Pronòstic

L'informe es va fer fa 1 hora i 3 minuts, a les 11:00 UTC
Pronòstic vàlid del 16 a les 12 UTC al 17 a les 18 UTC
Vent 5 kt del Nord amb ràfegues de 15 kt
Visibilitat: 7000 m
Temporalment
l' 16 a les 12 UTC al 16 a les 16 UTC
Visibilitat: 4000 m
Pols estès, torb alta de pols
Evolucionant progressivament
l' 16 a les 18 UTC al 16 a les 20 UTC
Vent 3 kt amb direcció variable

TAF: OERK 161100Z 1612/1718 35005G15KT 7000 NSC TEMPO 1612/1616 4000 DU BLDU BECMG 1618/1620 VRB03KT

Observacions i pronòstics meteorològics de més de 4000 aeroports (METAR i TAF).

Les estacions disponibles són els punts grocs i vermells al mapa.

Posi el ratolí al punt desitjat per veure el nom de l'estació.

Feu clic per veure les observacions i els pronòstics meteorològics.

Per canviar el mapa: feu clic els botons verds amb una creu de color negre per apropar; al botó verd amb un guió per allunyar la imatge; o en les fletxes verdes per a mapes adjacents.


METAR-TAF: